sensor_id;sensor_type;location;lat;lon;timestamp;P1;durP1;ratioP1;P2;durP2;ratioP2
2061;SDS011;11070;51.336;12.340;2023-11-18T00:00:31;8.15;;;7.35;;
2061;SDS011;11070;51.336;12.340;2023-11-18T00:02:58;8.85;;;6.88;;
2061;SDS011;11070;51.336;12.340;2023-11-18T00:05:23;11.17;;;7.47;;
2061;SDS011;11070;51.336;12.340;2023-11-18T00:07:49;8.07;;;7.23;;
2061;SDS011;11070;51.336;12.340;2023-11-18T00:10:15;8.50;;;7.45;;
2061;SDS011;11070;51.336;12.340;2023-11-18T00:12:42;15.32;;;11.98;;
2061;SDS011;11070;51.336;12.340;2023-11-18T00:15:08;7.15;;;6.38;;
2061;SDS011;11070;51.336;12.340;2023-11-18T00:17:36;8.10;;;6.75;;
2061;SDS011;11070;51.336;12.340;2023-11-18T00:20:02;8.32;;;7.05;;
2061;SDS011;11070;51.336;12.340;2023-11-18T00:22:34;9.00;;;7.10;;
2061;SDS011;11070;51.336;12.340;2023-11-18T00:25:06;9.55;;;6.90;;
2061;SDS011;11070;51.336;12.340;2023-11-18T00:27:34;9.10;;;7.13;;
2061;SDS011;11070;51.336;12.340;2023-11-18T00:30:02;7.43;;;6.55;;
2061;SDS011;11070;51.336;12.340;2023-11-18T00:32:33;6.55;;;5.35;;
2061;SDS011;11070;51.336;12.340;2023-11-18T00:35:00;6.75;;;6.05;;
2061;SDS011;11070;51.336;12.340;2023-11-18T00:37:26;6.05;;;5.47;;
2061;SDS011;11070;51.336;12.340;2023-11-18T00:39:52;6.30;;;5.70;;
2061;SDS011;11070;51.336;12.340;2023-11-18T00:42:18;5.53;;;5.03;;
2061;SDS011;11070;51.336;12.340;2023-11-18T00:44:43;6.13;;;5.30;;
2061;SDS011;11070;51.336;12.340;2023-11-18T00:47:09;5.80;;;4.77;;
2061;SDS011;11070;51.336;12.340;2023-11-18T00:49:35;6.77;;;5.07;;
2061;SDS011;11070;51.336;12.340;2023-11-18T00:52:01;5.43;;;4.93;;
2061;SDS011;11070;51.336;12.340;2023-11-18T00:54:26;6.83;;;5.50;;
2061;SDS011;11070;51.336;12.340;2023-11-18T00:56:52;6.83;;;5.10;;
2061;SDS011;11070;51.336;12.340;2023-11-18T00:59:18;6.07;;;4.97;;
2061;SDS011;11070;51.336;12.340;2023-11-18T01:01:43;5.23;;;4.73;;
2061;SDS011;11070;51.336;12.340;2023-11-18T01:04:09;5.10;;;4.13;;
2061;SDS011;11070;51.336;12.340;2023-11-18T01:06:35;4.10;;;3.80;;
2061;SDS011;11070;51.336;12.340;2023-11-18T01:09:01;4.85;;;4.20;;
2061;SDS011;11070;51.336;12.340;2023-11-18T01:11:27;4.23;;;3.70;;
2061;SDS011;11070;51.336;12.340;2023-11-18T01:13:53;4.27;;;3.87;;
2061;SDS011;11070;51.336;12.340;2023-11-18T01:16:19;4.90;;;3.92;;
2061;SDS011;11070;51.336;12.340;2023-11-18T01:18:45;5.83;;;4.10;;
2061;SDS011;11070;51.336;12.340;2023-11-18T01:21:11;4.40;;;4.00;;
2061;SDS011;11070;51.336;12.340;2023-11-18T01:23:37;4.18;;;3.78;;
2061;SDS011;11070;51.336;12.340;2023-11-18T01:26:06;11.18;;;4.25;;
2061;SDS011;11070;51.336;12.340;2023-11-18T01:28:36;4.72;;;3.70;;
2061;SDS011;11070;51.336;12.340;2023-11-18T01:31:04;4.25;;;3.50;;
2061;SDS011;11070;51.336;12.340;2023-11-18T01:33:32;3.75;;;3.45;;
2061;SDS011;11070;51.336;12.340;2023-11-18T01:35:58;4.00;;;3.60;;
2061;SDS011;11070;51.336;12.340;2023-11-18T01:38:24;3.72;;;3.42;;
2061;SDS011;11070;51.336;12.340;2023-11-18T01:40:51;4.20;;;3.80;;
2061;SDS011;11070;51.336;12.340;2023-11-18T01:43:18;4.00;;;3.67;;
2061;SDS011;11070;51.336;12.340;2023-11-18T01:45:44;4.15;;;3.75;;
2061;SDS011;11070;51.336;12.340;2023-11-18T01:48:11;4.22;;;3.83;;
2061;SDS011;11070;51.336;12.340;2023-11-18T01:50:38;4.05;;;3.65;;
2061;SDS011;11070;51.336;12.340;2023-11-18T01:53:06;6.13;;;4.00;;
2061;SDS011;11070;51.336;12.340;2023-11-18T01:55:32;4.63;;;4.10;;
2061;SDS011;11070;51.336;12.340;2023-11-18T01:57:59;4.55;;;3.88;;
2061;SDS011;11070;51.336;12.340;2023-11-18T02:00:32;4.38;;;3.97;;
2061;SDS011;11070;51.336;12.340;2023-11-18T02:03:00;5.47;;;4.20;;
2061;SDS011;11070;51.336;12.340;2023-11-18T02:05:26;5.10;;;4.50;;
2061;SDS011;11070;51.336;12.340;2023-11-18T02:07:51;6.10;;;4.30;;
2061;SDS011;11070;51.336;12.340;2023-11-18T02:10:17;5.07;;;4.27;;
2061;SDS011;11070;51.336;12.340;2023-11-18T02:12:57;5.90;;;5.23;;
2061;SDS011;11070;51.336;12.340;2023-11-18T02:15:37;9.70;;;5.38;;
2061;SDS011;11070;51.336;12.340;2023-11-18T02:18:06;6.00;;;5.15;;
2061;SDS011;11070;51.336;12.340;2023-11-18T02:20:34;8.90;;;5.97;;
2061;SDS011;11070;51.336;12.340;2023-11-18T02:23:01;5.50;;;4.82;;
2061;SDS011;11070;51.336;12.340;2023-11-18T02:25:27;6.18;;;4.70;;
2061;SDS011;11070;51.336;12.340;2023-11-18T02:27:58;5.15;;;4.68;;
2061;SDS011;11070;51.336;12.340;2023-11-18T02:30:24;4.90;;;4.40;;
2061;SDS011;11070;51.336;12.340;2023-11-18T02:33:03;6.45;;;4.90;;
2061;SDS011;11070;51.336;12.340;2023-11-18T02:35:53;6.13;;;5.07;;
2061;SDS011;11070;51.336;12.340;2023-11-18T02:38:31;5.20;;;4.70;;
2061;SDS011;11070;51.336;12.340;2023-11-18T02:41:06;6.50;;;5.15;;
2061;SDS011;11070;51.336;12.340;2023-11-18T02:43:37;7.95;;;4.88;;
2061;SDS011;11070;51.336;12.340;2023-11-18T02:46:05;6.35;;;5.40;;
2061;SDS011;11070;51.336;12.340;2023-11-18T02:48:33;5.10;;;4.60;;
2061;SDS011;11070;51.336;12.340;2023-11-18T02:51:00;6.45;;;5.78;;
2061;SDS011;11070;51.336;12.340;2023-11-18T02:53:26;6.35;;;5.45;;
2061;SDS011;11070;51.336;12.340;2023-11-18T02:55:52;5.93;;;5.30;;
2061;SDS011;11070;51.336;12.340;2023-11-18T02:58:19;7.88;;;6.00;;
2061;SDS011;11070;51.336;12.340;2023-11-18T03:00:45;6.80;;;6.10;;
2061;SDS011;11070;51.336;12.340;2023-11-18T03:03:11;7.57;;;5.53;;
2061;SDS011;11070;51.336;12.340;2023-11-18T03:05:37;7.20;;;5.60;;
2061;SDS011;11070;51.336;12.340;2023-11-18T03:08:03;8.57;;;5.93;;
2061;SDS011;11070;51.336;12.340;2023-11-18T03:10:34;8.75;;;6.07;;
2061;SDS011;11070;51.336;12.340;2023-11-18T03:13:00;6.45;;;5.75;;
2061;SDS011;11070;51.336;12.340;2023-11-18T03:15:26;7.30;;;5.85;;
2061;SDS011;11070;51.336;12.340;2023-11-18T03:17:52;7.00;;;5.30;;
2061;SDS011;11070;51.336;12.340;2023-11-18T03:20:20;7.63;;;6.10;;
2061;SDS011;11070;51.336;12.340;2023-11-18T03:22:48;7.30;;;5.53;;
2061;SDS011;11070;51.336;12.340;2023-11-18T03:25:15;7.30;;;5.75;;
2061;SDS011;11070;51.336;12.340;2023-11-18T03:27:42;10.73;;;6.40;;
2061;SDS011;11070;51.336;12.340;2023-11-18T03:30:09;9.43;;;6.03;;
2061;SDS011;11070;51.336;12.340;2023-11-18T03:32:35;15.13;;;6.68;;
2061;SDS011;11070;51.336;12.340;2023-11-18T03:35:04;13.50;;;6.20;;
2061;SDS011;11070;51.336;12.340;2023-11-18T03:37:42;10.13;;;6.70;;
2061;SDS011;11070;51.336;12.340;2023-11-18T03:40:08;8.88;;;7.28;;
2061;SDS011;11070;51.336;12.340;2023-11-18T03:42:39;9.80;;;7.80;;
2061;SDS011;11070;51.336;12.340;2023-11-18T03:45:06;12.27;;;9.10;;
2061;SDS011;11070;51.336;12.340;2023-11-18T03:47:33;12.00;;;9.40;;
2061;SDS011;11070;51.336;12.340;2023-11-18T03:49:59;12.57;;;10.03;;
2061;SDS011;11070;51.336;12.340;2023-11-18T03:52:24;14.67;;;10.27;;
2061;SDS011;11070;51.336;12.340;2023-11-18T03:54:51;16.00;;;10.93;;
2061;SDS011;11070;51.336;12.340;2023-11-18T03:57:16;18.57;;;10.73;;
2061;SDS011;11070;51.336;12.340;2023-11-18T03:59:42;14.70;;;10.53;;
2061;SDS011;11070;51.336;12.340;2023-11-18T04:02:08;16.20;;;9.83;;
2061;SDS011;11070;51.336;12.340;2023-11-18T04:04:36;15.57;;;11.70;;
2061;SDS011;11070;51.336;12.340;2023-11-18T04:07:05;16.17;;;10.40;;
2061;SDS011;11070;51.336;12.340;2023-11-18T04:09:31;12.82;;;10.45;;
2061;SDS011;11070;51.336;12.340;2023-11-18T04:11:57;15.25;;;9.80;;
2061;SDS011;11070;51.336;12.340;2023-11-18T04:14:23;13.55;;;9.48;;
2061;SDS011;11070;51.336;12.340;2023-11-18T04:16:50;12.77;;;9.90;;
2061;SDS011;11070;51.336;12.340;2023-11-18T04:19:16;12.35;;;9.40;;
2061;SDS011;11070;51.336;12.340;2023-11-18T04:21:42;12.57;;;9.75;;
2061;SDS011;11070;51.336;12.340;2023-11-18T04:24:12;13.02;;;9.05;;
2061;SDS011;11070;51.336;12.340;2023-11-18T04:26:38;10.83;;;8.30;;
2061;SDS011;11070;51.336;12.340;2023-11-18T04:29:03;9.60;;;7.50;;
2061;SDS011;11070;51.336;12.340;2023-11-18T04:31:29;12.17;;;8.90;;
2061;SDS011;11070;51.336;12.340;2023-11-18T04:33:55;12.70;;;8.70;;
2061;SDS011;11070;51.336;12.340;2023-11-18T04:36:21;10.70;;;8.93;;
2061;SDS011;11070;51.336;12.340;2023-11-18T04:38:47;12.95;;;8.80;;
2061;SDS011;11070;51.336;12.340;2023-11-18T04:41:12;11.63;;;8.30;;
2061;SDS011;11070;51.336;12.340;2023-11-18T04:43:38;11.93;;;9.70;;
2061;SDS011;11070;51.336;12.340;2023-11-18T04:46:06;12.20;;;9.27;;
2061;SDS011;11070;51.336;12.340;2023-11-18T04:48:32;19.88;;;10.27;;
2061;SDS011;11070;51.336;12.340;2023-11-18T04:50:59;13.73;;;10.10;;
2061;SDS011;11070;51.336;12.340;2023-11-18T04:53:25;13.40;;;10.73;;
2061;SDS011;11070;51.336;12.340;2023-11-18T04:55:51;15.63;;;11.33;;
2061;SDS011;11070;51.336;12.340;2023-11-18T04:58:17;14.55;;;10.20;;
2061;SDS011;11070;51.336;12.340;2023-11-18T05:00:44;16.00;;;10.02;;
2061;SDS011;11070;51.336;12.340;2023-11-18T05:03:09;11.90;;;9.43;;
2061;SDS011;11070;51.336;12.340;2023-11-18T05:05:38;13.77;;;10.03;;
2061;SDS011;11070;51.336;12.340;2023-11-18T05:08:07;16.40;;;11.32;;
2061;SDS011;11070;51.336;12.340;2023-11-18T05:10:46;16.00;;;11.30;;
2061;SDS011;11070;51.336;12.340;2023-11-18T05:13:15;16.27;;;11.73;;
2061;SDS011;11070;51.336;12.340;2023-11-18T05:15:45;18.02;;;11.93;;
2061;SDS011;11070;51.336;12.340;2023-11-18T05:18:12;14.82;;;11.02;;
2061;SDS011;11070;51.336;12.340;2023-11-18T05:20:40;18.52;;;11.55;;
2061;SDS011;11070;51.336;12.340;2023-11-18T05:23:11;18.65;;;13.07;;
2061;SDS011;11070;51.336;12.340;2023-11-18T05:25:39;19.27;;;12.38;;
2061;SDS011;11070;51.336;12.340;2023-11-18T05:28:05;20.85;;;13.73;;
2061;SDS011;11070;51.336;12.340;2023-11-18T05:30:34;21.45;;;14.63;;
2061;SDS011;11070;51.336;12.340;2023-11-18T05:33:01;19.10;;;13.82;;
2061;SDS011;11070;51.336;12.340;2023-11-18T05:35:30;20.02;;;13.80;;
2061;SDS011;11070;51.336;12.340;2023-11-18T05:37:56;20.52;;;14.52;;
2061;SDS011;11070;51.336;12.340;2023-11-18T05:40:22;20.97;;;14.03;;
2061;SDS011;11070;51.336;12.340;2023-11-18T05:42:48;18.53;;;13.13;;
2061;SDS011;11070;51.336;12.340;2023-11-18T05:45:17;20.38;;;14.10;;
2061;SDS011;11070;51.336;12.340;2023-11-18T05:47:56;24.42;;;15.07;;
2061;SDS011;11070;51.336;12.340;2023-11-18T05:50:22;19.35;;;13.57;;
2061;SDS011;11070;51.336;12.340;2023-11-18T05:52:52;22.40;;;16.38;;
2061;SDS011;11070;51.336;12.340;2023-11-18T05:55:18;23.30;;;16.17;;
2061;SDS011;11070;51.336;12.340;2023-11-18T05:57:44;25.50;;;16.53;;
2061;SDS011;11070;51.336;12.340;2023-11-18T06:00:11;26.63;;;17.15;;
2061;SDS011;11070;51.336;12.340;2023-11-18T06:02:41;27.13;;;18.27;;
2061;SDS011;11070;51.336;12.340;2023-11-18T06:05:08;27.70;;;18.05;;
2061;SDS011;11070;51.336;12.340;2023-11-18T06:07:34;27.65;;;18.58;;
2061;SDS011;11070;51.336;12.340;2023-11-18T06:10:01;26.05;;;17.55;;
2061;SDS011;11070;51.336;12.340;2023-11-18T06:12:30;28.80;;;17.30;;
2061;SDS011;11070;51.336;12.340;2023-11-18T06:14:56;29.20;;;18.20;;
2061;SDS011;11070;51.336;12.340;2023-11-18T06:17:22;28.10;;;17.40;;
2061;SDS011;11070;51.336;12.340;2023-11-18T06:19:48;30.65;;;18.65;;
2061;SDS011;11070;51.336;12.340;2023-11-18T06:22:14;30.40;;;17.60;;
2061;SDS011;11070;51.336;12.340;2023-11-18T06:24:40;31.43;;;18.40;;
2061;SDS011;11070;51.336;12.340;2023-11-18T06:27:06;30.23;;;19.27;;
2061;SDS011;11070;51.336;12.340;2023-11-18T06:29:33;30.38;;;18.52;;
2061;SDS011;11070;51.336;12.340;2023-11-18T06:31:59;31.70;;;18.23;;
2061;SDS011;11070;51.336;12.340;2023-11-18T06:34:25;29.55;;;18.48;;
2061;SDS011;11070;51.336;12.340;2023-11-18T06:36:52;30.27;;;19.30;;
2061;SDS011;11070;51.336;12.340;2023-11-18T06:39:18;32.00;;;19.42;;
2061;SDS011;11070;51.336;12.340;2023-11-18T06:41:44;38.60;;;20.70;;
2061;SDS011;11070;51.336;12.340;2023-11-18T06:44:15;28.10;;;19.48;;
2061;SDS011;11070;51.336;12.340;2023-11-18T06:46:47;31.65;;;19.10;;
2061;SDS011;11070;51.336;12.340;2023-11-18T06:49:15;30.42;;;18.98;;
2061;SDS011;11070;51.336;12.340;2023-11-18T06:51:41;32.33;;;18.65;;
2061;SDS011;11070;51.336;12.340;2023-11-18T06:54:08;32.30;;;18.38;;
2061;SDS011;11070;51.336;12.340;2023-11-18T06:56:34;32.50;;;19.63;;
2061;SDS011;11070;51.336;12.340;2023-11-18T06:59:03;28.73;;;19.00;;
2061;SDS011;11070;51.336;12.340;2023-11-18T07:01:32;31.55;;;19.92;;
2061;SDS011;11070;51.336;12.340;2023-11-18T07:03:58;36.80;;;23.30;;
2061;SDS011;11070;51.336;12.340;2023-11-18T07:06:24;46.30;;;24.97;;
2061;SDS011;11070;51.336;12.340;2023-11-18T07:08:52;48.05;;;32.53;;
2061;SDS011;11070;51.336;12.340;2023-11-18T07:11:19;42.50;;;30.58;;
2061;SDS011;11070;51.336;12.340;2023-11-18T07:13:48;49.17;;;30.75;;
2061;SDS011;11070;51.336;12.340;2023-11-18T07:16:25;43.67;;;28.80;;
2061;SDS011;11070;51.336;12.340;2023-11-18T07:18:51;36.60;;;23.80;;
2061;SDS011;11070;51.336;12.340;2023-11-18T07:21:17;40.40;;;25.88;;
2061;SDS011;11070;51.336;12.340;2023-11-18T07:23:42;44.03;;;27.83;;
2061;SDS011;11070;51.336;12.340;2023-11-18T07:26:08;42.50;;;26.80;;
2061;SDS011;11070;51.336;12.340;2023-11-18T07:28:38;37.95;;;23.10;;
2061;SDS011;11070;51.336;12.340;2023-11-18T07:31:05;33.92;;;21.98;;
2061;SDS011;11070;51.336;12.340;2023-11-18T07:33:31;37.33;;;22.63;;
2061;SDS011;11070;51.336;12.340;2023-11-18T07:35:57;32.45;;;21.55;;
2061;SDS011;11070;51.336;12.340;2023-11-18T07:38:23;33.07;;;21.30;;
2061;SDS011;11070;51.336;12.340;2023-11-18T07:40:49;30.23;;;19.40;;
2061;SDS011;11070;51.336;12.340;2023-11-18T07:43:17;29.60;;;19.13;;
2061;SDS011;11070;51.336;12.340;2023-11-18T07:45:46;32.47;;;20.83;;
2061;SDS011;11070;51.336;12.340;2023-11-18T07:48:15;30.40;;;18.67;;
2061;SDS011;11070;51.336;12.340;2023-11-18T07:50:42;29.13;;;19.67;;
2061;SDS011;11070;51.336;12.340;2023-11-18T07:53:12;28.55;;;17.98;;
2061;SDS011;11070;51.336;12.340;2023-11-18T07:55:38;32.42;;;17.52;;
2061;SDS011;11070;51.336;12.340;2023-11-18T07:58:06;23.92;;;16.98;;
2061;SDS011;11070;51.336;12.340;2023-11-18T08:00:36;26.02;;;16.52;;
2061;SDS011;11070;51.336;12.340;2023-11-18T08:03:04;28.55;;;16.27;;
2061;SDS011;11070;51.336;12.340;2023-11-18T08:05:36;25.33;;;16.83;;
2061;SDS011;11070;51.336;12.340;2023-11-18T08:08:06;25.20;;;15.55;;
2061;SDS011;11070;51.336;12.340;2023-11-18T08:10:32;23.63;;;15.32;;
2061;SDS011;11070;51.336;12.340;2023-11-18T08:13:03;25.65;;;16.00;;
2061;SDS011;11070;51.336;12.340;2023-11-18T08:15:29;21.25;;;15.07;;
2061;SDS011;11070;51.336;12.340;2023-11-18T08:17:56;21.15;;;14.70;;
2061;SDS011;11070;51.336;12.340;2023-11-18T08:20:22;20.80;;;14.50;;
2061;SDS011;11070;51.336;12.340;2023-11-18T08:22:50;24.35;;;14.80;;
2061;SDS011;11070;51.336;12.340;2023-11-18T08:25:16;20.30;;;14.43;;
2061;SDS011;11070;51.336;12.340;2023-11-18T08:27:42;19.38;;;13.50;;
2061;SDS011;11070;51.336;12.340;2023-11-18T08:30:10;20.25;;;13.93;;
2061;SDS011;11070;51.336;12.340;2023-11-18T08:32:38;18.20;;;13.35;;
2061;SDS011;11070;51.336;12.340;2023-11-18T08:35:05;20.33;;;12.68;;
2061;SDS011;11070;51.336;12.340;2023-11-18T08:37:33;17.10;;;13.07;;
2061;SDS011;11070;51.336;12.340;2023-11-18T08:40:01;22.25;;;13.20;;
2061;SDS011;11070;51.336;12.340;2023-11-18T08:42:27;21.80;;;14.15;;
2061;SDS011;11070;51.336;12.340;2023-11-18T08:44:54;17.75;;;13.18;;
2061;SDS011;11070;51.336;12.340;2023-11-18T08:47:20;26.23;;;15.02;;
2061;SDS011;11070;51.336;12.340;2023-11-18T08:49:46;21.90;;;15.30;;
2061;SDS011;11070;51.336;12.340;2023-11-18T08:52:12;20.30;;;15.07;;
2061;SDS011;11070;51.336;12.340;2023-11-18T08:54:38;16.27;;;12.33;;
2061;SDS011;11070;51.336;12.340;2023-11-18T08:57:24;15.63;;;12.40;;
2061;SDS011;11070;51.336;12.340;2023-11-18T08:59:50;19.30;;;14.13;;
2061;SDS011;11070;51.336;12.340;2023-11-18T09:02:19;19.35;;;15.18;;
2061;SDS011;11070;51.336;12.340;2023-11-18T09:04:50;20.67;;;14.82;;
2061;SDS011;11070;51.336;12.340;2023-11-18T09:07:17;22.30;;;14.13;;
2061;SDS011;11070;51.336;12.340;2023-11-18T09:09:44;21.33;;;15.80;;
2061;SDS011;11070;51.336;12.340;2023-11-18T09:12:11;19.20;;;14.77;;
2061;SDS011;11070;51.336;12.340;2023-11-18T09:14:39;21.30;;;15.60;;
2061;SDS011;11070;51.336;12.340;2023-11-18T09:17:07;19.88;;;14.18;;
2061;SDS011;11070;51.336;12.340;2023-11-18T09:19:34;19.42;;;14.20;;
2061;SDS011;11070;51.336;12.340;2023-11-18T09:22:00;18.07;;;13.03;;
2061;SDS011;11070;51.336;12.340;2023-11-18T09:24:26;19.23;;;15.10;;
2061;SDS011;11070;51.336;12.340;2023-11-18T09:26:52;22.13;;;14.73;;
2061;SDS011;11070;51.336;12.340;2023-11-18T09:29:20;19.90;;;13.70;;
2061;SDS011;11070;51.336;12.340;2023-11-18T09:31:49;19.42;;;15.05;;
2061;SDS011;11070;51.336;12.340;2023-11-18T09:34:17;21.20;;;13.90;;
2061;SDS011;11070;51.336;12.340;2023-11-18T09:36:43;20.67;;;15.50;;
2061;SDS011;11070;51.336;12.340;2023-11-18T09:39:10;21.60;;;16.20;;
2061;SDS011;11070;51.336;12.340;2023-11-18T09:41:54;20.80;;;15.40;;
2061;SDS011;11070;51.336;12.340;2023-11-18T09:44:22;19.77;;;14.27;;
2061;SDS011;11070;51.336;12.340;2023-11-18T09:46:50;20.33;;;15.57;;
2061;SDS011;11070;51.336;12.340;2023-11-18T09:49:29;24.05;;;16.00;;
2061;SDS011;11070;51.336;12.340;2023-11-18T09:52:04;23.73;;;15.20;;
2061;SDS011;11070;51.336;12.340;2023-11-18T09:54:43;20.45;;;15.10;;
2061;SDS011;11070;51.336;12.340;2023-11-18T09:59:56;20.40;;;14.70;;
2061;SDS011;11070;51.336;12.340;2023-11-18T10:02:38;20.27;;;14.52;;
2061;SDS011;11070;51.336;12.340;2023-11-18T10:05:05;17.17;;;13.48;;
2061;SDS011;11070;51.336;12.340;2023-11-18T10:07:38;26.50;;;19.88;;
2061;SDS011;11070;51.336;12.340;2023-11-18T10:10:06;28.15;;;20.90;;
2061;SDS011;11070;51.336;12.340;2023-11-18T10:12:43;16.98;;;12.95;;
2061;SDS011;11070;51.336;12.340;2023-11-18T10:15:11;21.98;;;14.00;;
2061;SDS011;11070;51.336;12.340;2023-11-18T10:17:42;18.15;;;13.15;;
2061;SDS011;11070;51.336;12.340;2023-11-18T10:20:42;14.65;;;11.75;;
2061;SDS011;11070;51.336;12.340;2023-11-18T10:23:09;13.20;;;10.20;;
2061;SDS011;11070;51.336;12.340;2023-11-18T10:25:38;13.90;;;11.60;;
2061;SDS011;11070;51.336;12.340;2023-11-18T10:28:33;10.70;;;9.32;;
2061;SDS011;11070;51.336;12.340;2023-11-18T10:31:02;13.25;;;9.52;;
2061;SDS011;11070;51.336;12.340;2023-11-18T10:33:33;9.90;;;7.93;;
2061;SDS011;11070;51.336;12.340;2023-11-18T10:36:06;11.20;;;8.77;;
2061;SDS011;11070;51.336;12.340;2023-11-18T10:38:48;8.18;;;7.38;;
2061;SDS011;11070;51.336;12.340;2023-11-18T10:41:16;7.40;;;6.57;;
2061;SDS011;11070;51.336;12.340;2023-11-18T10:43:43;6.00;;;5.43;;
2061;SDS011;11070;51.336;12.340;2023-11-18T10:46:15;7.93;;;7.13;;
2061;SDS011;11070;51.336;12.340;2023-11-18T10:48:45;8.80;;;8.00;;
2061;SDS011;11070;51.336;12.340;2023-11-18T10:51:18;9.82;;;8.82;;
2061;SDS011;11070;51.336;12.340;2023-11-18T10:53:49;11.10;;;9.95;;
2061;SDS011;11070;51.336;12.340;2023-11-18T10:56:23;10.25;;;9.10;;
2061;SDS011;11070;51.336;12.340;2023-11-18T10:58:55;12.23;;;9.30;;
2061;SDS011;11070;51.336;12.340;2023-11-18T11:01:31;11.80;;;9.95;;
2061;SDS011;11070;51.336;12.340;2023-11-18T11:03:58;11.95;;;10.30;;
2061;SDS011;11070;51.336;12.340;2023-11-18T11:06:25;14.82;;;11.40;;
2061;SDS011;11070;51.336;12.340;2023-11-18T11:08:51;15.60;;;11.93;;
2061;SDS011;11070;51.336;12.340;2023-11-18T11:11:21;14.45;;;11.45;;
2061;SDS011;11070;51.336;12.340;2023-11-18T11:13:57;16.02;;;12.85;;
2061;SDS011;11070;51.336;12.340;2023-11-18T11:16:28;15.95;;;13.65;;
2061;SDS011;11070;51.336;12.340;2023-11-18T11:22:23;15.13;;;12.25;;
2061;SDS011;11070;51.336;12.340;2023-11-18T11:27:33;16.20;;;12.90;;
2061;SDS011;11070;51.336;12.340;2023-11-18T11:33:08;15.50;;;12.25;;
2061;SDS011;11070;51.336;12.340;2023-11-18T11:35:53;17.73;;;13.50;;
2061;SDS011;11070;51.336;12.340;2023-11-18T11:38:24;16.83;;;12.88;;
2061;SDS011;11070;51.336;12.340;2023-11-18T11:40:51;16.88;;;12.90;;
2061;SDS011;11070;51.336;12.340;2023-11-18T11:43:20;18.73;;;13.55;;
2061;SDS011;11070;51.336;12.340;2023-11-18T11:45:52;15.20;;;12.80;;
2061;SDS011;11070;51.336;12.340;2023-11-18T11:48:20;14.52;;;11.70;;
2061;SDS011;11070;51.336;12.340;2023-11-18T11:51:09;12.80;;;11.40;;
2061;SDS011;11070;51.336;12.340;2023-11-18T11:53:47;11.57;;;10.30;;
2061;SDS011;11070;51.336;12.340;2023-11-18T11:56:46;11.85;;;10.45;;
2061;SDS011;11070;51.336;12.340;2023-11-18T12:02:18;12.55;;;10.25;;
2061;SDS011;11070;51.336;12.340;2023-11-18T12:04:49;12.63;;;10.80;;
2061;SDS011;11070;51.336;12.340;2023-11-18T12:07:21;13.95;;;12.00;;
2061;SDS011;11070;51.336;12.340;2023-11-18T12:09:58;12.95;;;11.13;;
2061;SDS011;11070;51.336;12.340;2023-11-18T12:12:26;16.35;;;12.30;;
2061;SDS011;11070;51.336;12.340;2023-11-18T12:14:58;11.85;;;10.48;;
2061;SDS011;11070;51.336;12.340;2023-11-18T12:20:38;11.38;;;9.50;;
2061;SDS011;11070;51.336;12.340;2023-11-18T12:23:19;13.75;;;10.50;;
2061;SDS011;11070;51.336;12.340;2023-11-18T12:25:48;13.07;;;10.00;;
2061;SDS011;11070;51.336;12.340;2023-11-18T12:28:19;13.70;;;10.48;;
2061;SDS011;11070;51.336;12.340;2023-11-18T12:31:10;11.45;;;9.68;;
2061;SDS011;11070;51.336;12.340;2023-11-18T12:44:07;8.05;;;7.35;;
2061;SDS011;11070;51.336;12.340;2023-11-18T12:47:00;8.30;;;7.22;;
2061;SDS011;11070;51.336;12.340;2023-11-18T12:49:45;8.85;;;8.00;;
2061;SDS011;11070;51.336;12.340;2023-11-18T12:52:19;10.85;;;9.23;;
2061;SDS011;11070;51.336;12.340;2023-11-18T12:54:46;12.88;;;9.02;;
2061;SDS011;11070;51.336;12.340;2023-11-18T12:57:15;11.25;;;9.35;;
2061;SDS011;11070;51.336;12.340;2023-11-18T12:59:42;11.70;;;9.85;;
2061;SDS011;11070;51.336;12.340;2023-11-18T13:02:08;14.70;;;11.20;;
2061;SDS011;11070;51.336;12.340;2023-11-18T13:04:41;11.68;;;10.48;;
2061;SDS011;11070;51.336;12.340;2023-11-18T13:07:07;10.60;;;9.13;;
2061;SDS011;11070;51.336;12.340;2023-11-18T13:09:33;13.65;;;10.93;;
2061;SDS011;11070;51.336;12.340;2023-11-18T13:12:01;13.63;;;10.45;;
2061;SDS011;11070;51.336;12.340;2023-11-18T13:14:34;11.77;;;9.00;;
2061;SDS011;11070;51.336;12.340;2023-11-18T13:17:03;12.40;;;11.10;;
2061;SDS011;11070;51.336;12.340;2023-11-18T13:19:34;12.45;;;9.70;;
2061;SDS011;11070;51.336;12.340;2023-11-18T13:22:06;13.48;;;9.65;;
2061;SDS011;11070;51.336;12.340;2023-11-18T13:24:34;17.95;;;13.05;;
2061;SDS011;11070;51.336;12.340;2023-11-18T13:27:01;12.07;;;9.27;;
2061;SDS011;11070;51.336;12.340;2023-11-18T13:29:30;14.30;;;11.00;;
2061;SDS011;11070;51.336;12.340;2023-11-18T13:31:57;11.80;;;9.85;;
2061;SDS011;11070;51.336;12.340;2023-11-18T13:34:25;14.52;;;9.85;;
2061;SDS011;11070;51.336;12.340;2023-11-18T13:36:52;12.23;;;10.85;;
2061;SDS011;11070;51.336;12.340;2023-11-18T13:39:20;14.52;;;11.48;;
2061;SDS011;11070;51.336;12.340;2023-11-18T13:41:49;13.83;;;11.07;;
2061;SDS011;11070;51.336;12.340;2023-11-18T13:47:01;14.73;;;10.77;;
2061;SDS011;11070;51.336;12.340;2023-11-18T13:49:30;14.95;;;10.82;;
2061;SDS011;11070;51.336;12.340;2023-11-18T13:51:56;17.45;;;11.82;;
2061;SDS011;11070;51.336;12.340;2023-11-18T13:54:22;14.70;;;10.03;;
2061;SDS011;11070;51.336;12.340;2023-11-18T13:56:50;14.73;;;10.32;;
2061;SDS011;11070;51.336;12.340;2023-11-18T13:59:17;16.05;;;11.50;;
2061;SDS011;11070;51.336;12.340;2023-11-18T14:01:43;14.77;;;10.57;;
2061;SDS011;11070;51.336;12.340;2023-11-18T14:04:11;18.93;;;13.33;;
2061;SDS011;11070;51.336;12.340;2023-11-18T14:06:37;16.20;;;11.23;;
2061;SDS011;11070;51.336;12.340;2023-11-18T14:09:04;14.80;;;11.25;;
2061;SDS011;11070;51.336;12.340;2023-11-18T14:11:30;17.80;;;11.47;;
2061;SDS011;11070;51.336;12.340;2023-11-18T14:13:56;15.23;;;11.70;;
2061;SDS011;11070;51.336;12.340;2023-11-18T14:16:23;14.90;;;12.13;;
2061;SDS011;11070;51.336;12.340;2023-11-18T14:18:51;13.50;;;10.57;;
2061;SDS011;11070;51.336;12.340;2023-11-18T14:21:17;15.10;;;11.50;;
2061;SDS011;11070;51.336;12.340;2023-11-18T14:23:43;14.25;;;10.13;;
2061;SDS011;11070;51.336;12.340;2023-11-18T14:26:09;13.50;;;9.95;;
2061;SDS011;11070;51.336;12.340;2023-11-18T14:28:35;15.63;;;11.43;;
2061;SDS011;11070;51.336;12.340;2023-11-18T14:31:02;13.95;;;10.82;;
2061;SDS011;11070;51.336;12.340;2023-11-18T14:33:36;14.77;;;11.07;;
2061;SDS011;11070;51.336;12.340;2023-11-18T14:36:02;17.10;;;10.40;;
2061;SDS011;11070;51.336;12.340;2023-11-18T14:38:30;15.25;;;11.13;;
2061;SDS011;11070;51.336;12.340;2023-11-18T14:40:55;12.43;;;9.90;;
2061;SDS011;11070;51.336;12.340;2023-11-18T14:43:21;16.70;;;10.13;;
2061;SDS011;11070;51.336;12.340;2023-11-18T14:45:47;14.10;;;10.40;;
2061;SDS011;11070;51.336;12.340;2023-11-18T14:48:13;13.07;;;10.35;;
2061;SDS011;11070;51.336;12.340;2023-11-18T14:50:39;15.17;;;10.10;;
2061;SDS011;11070;51.336;12.340;2023-11-18T14:53:05;13.87;;;10.73;;
2061;SDS011;11070;51.336;12.340;2023-11-18T14:55:31;13.73;;;10.20;;
2061;SDS011;11070;51.336;12.340;2023-11-18T14:57:58;13.35;;;10.25;;
2061;SDS011;11070;51.336;12.340;2023-11-18T15:00:24;15.87;;;11.87;;
2061;SDS011;11070;51.336;12.340;2023-11-18T15:02:52;16.58;;;12.68;;
2061;SDS011;11070;51.336;12.340;2023-11-18T15:05:20;14.35;;;11.50;;
2061;SDS011;11070;51.336;12.340;2023-11-18T15:10:14;17.00;;;11.95;;
2061;SDS011;11070;51.336;12.340;2023-11-18T15:12:50;15.38;;;11.90;;